Osorno, Chile
Current Conditions -  °F | °C
As of 11:00 AM on Saturday 22 Nov 2014 (Local Time) from SCTE Reporting Station
Broken Clouds Broken Clouds  
Wind Chill: 57°   Ceiling: 4000
Heat Index: 57°   Visibility: 6mi
Dew Point: 46°   Wind: 9mph
Humidity: 67%   Direction: 320°NW
Pressure: 30.03"   Gusts: NA
Location:  40.57°S, 73.16°W
Report Text: SCTE 221500Z 32008KT 9999 SCT030 BKN040 14/08 Q1017 NOSIG
Loading
Personal Weather Stations






























Interactive Weather Map New forecast layout! Learn more

10-Day Weather Forecast

Advertisements
Track Severe Weather on mobile